Time,TemperatureF,DewpointF,PressureIn,WindDirection,WindDirectionDegrees,WindSpeedMPH,WindSpeedGustMPH,Humidity,HourlyPrecipIn,Conditions,Clouds,dailyrainin,SoftwareType,DateUTC
2014-01-01 00:00:00,30.0,17.0,30.15,ENE,67,0.0,6.0,58,0.00,,,0.00,Weather View 32 v70,2014-01-01 07:00:00,
2014-01-01 00:05:00,30.0,16.6,30.15,ENE,67,0.0,5.0,57,0.00,,,0.00,Weather View 32 v70,2014-01-01 07:05:00,
2014-01-01 00:10:00,30.0,17.0,30.15,ENE,67,0.0,4.0,58,0.00,,,0.00,Weather View 32 v70,2014-01-01 07:10:00,
2014-01-01 00:15:00,30.0,17.4,30.15,ENE,67,0.0,4.0,59,0.00,,,0.00,Weather View 32 v70,2014-01-01 07:15:00,
2014-01-01 00:20:00,30.0,17.8,30.15,ENE,67,0.0,4.0,60,0.00,,,0.00,Weather View 32 v70,2014-01-01 07:20:00,
2014-01-01 00:22:00,30.0,18.2,30.15,ENE,67,0.0,4.0,61,0.00,,,0.00,Weather View 32 v70,2014-01-01 07:22:00,
2014-01-01 00:27:00,30.0,17.8,30.15,ENE,67,0.0,4.0,60,0.00,,,0.00,Weather View 32 v70,2014-01-01 07:27:00,
2014-01-01 00:32:00,30.0,17.8,30.15,ENE,67,0.0,4.0,60,0.00,,,0.00,Weather View 32 v70,2014-01-01 07:32:00,
2014-01-01 00:37:00,30.0,17.8,30.15,ENE,67,0.0,4.0,60,0.00,,,0.00,Weather View 32 v70,2014-01-01 07:37:00,
2014-01-01 00:42:00,29.0,16.8,30.15,ENE,67,0.0,4.0,60,0.00,,,0.00,Weather View 32 v70,2014-01-01 07:42:00,
2014-01-01 00:47:00,29.0,16.8,30.14,ENE,67,0.0,3.0,60,0.00,,,0.00,Weather View 32 v70,2014-01-01 07:47:00,
2014-01-01 00:52:00,29.0,16.8,30.14,ENE,67,1.0,3.0,60,0.00,,,0.00,Weather View 32 v70,2014-01-01 07:52:00,
2014-01-01 00:57:00,29.0,17.2,30.14,ENE,67,0.0,1.0,61,0.00,,,0.00,Weather View 32 v70,2014-01-01 07:57:00,
2014-01-01 01:00:00,29.0,18.3,30.14,ENE,67,0.0,2.0,64,0.00,,,0.00,Weather View 32 v70,2014-01-01 08:00:00,
2014-01-01 01:05:00,29.0,18.3,30.15,ENE,67,3.0,4.0,64,0.00,,,0.00,Weather View 32 v70,2014-01-01 08:05:00,
2014-01-01 01:10:00,28.0,17.8,30.15,ENE,67,4.0,6.0,65,0.00,,,0.00,Weather View 32 v70,2014-01-01 08:10:00,
2014-01-01 01:15:00,28.0,18.1,30.15,ENE,67,0.0,6.0,66,0.00,,,0.00,Weather View 32 v70,2014-01-01 08:15:00,
2014-01-01 01:20:00,28.0,18.5,30.15,ENE,67,2.0,6.0,67,0.00,,,0.00,Weather View 32 v70,2014-01-01 08:20:00,
2014-01-01 01:25:00,27.0,17.5,30.15,ENE,67,3.0,6.0,67,0.00,,,0.00,Weather View 32 v70,2014-01-01 08:25:00,
2014-01-01 01:30:00,27.0,17.8,30.15,ENE,67,0.0,6.0,68,0.00,,,0.00,Weather View 32 v70,2014-01-01 08:30:00,
2014-01-01 01:35:00,27.0,18.2,30.15,ENE,67,2.0,6.0,69,0.00,,,0.00,Weather View 32 v70,2014-01-01 08:35:00,
2014-01-01 01:40:00,27.0,18.5,30.15,ENE,67,0.0,6.0,70,0.00,,,0.00,Weather View 32 v70,2014-01-01 08:40:00,
2014-01-01 01:45:00,27.0,18.2,30.15,ENE,67,1.0,6.0,69,0.00,,,0.00,Weather View 32 v70,2014-01-01 08:45:00,
2014-01-01 01:50:00,26.0,17.9,30.15,ENE,67,0.0,6.0,71,0.00,,,0.00,Weather View 32 v70,2014-01-01 08:50:00,
2014-01-01 01:55:00,26.0,17.9,30.15,ENE,67,4.0,6.0,71,0.00,,,0.00,Weather View 32 v70,2014-01-01 08:55:00,
2014-01-01 02:00:00,26.0,18.5,30.15,ENE,67,3.0,6.0,73,0.00,,,0.00,Weather View 32 v70,2014-01-01 09:00:00,
2014-01-01 02:05:00,26.0,18.5,30.15,ENE,67,0.0,6.0,73,0.00,,,0.00,Weather View 32 v70,2014-01-01 09:05:00,
2014-01-01 02:10:00,26.0,18.5,30.16,ENE,67,4.0,6.0,73,0.00,,,0.00,Weather View 32 v70,2014-01-01 09:10:00,
2014-01-01 02:15:00,25.0,17.6,30.16,ENE,67,4.0,5.0,73,0.00,,,0.00,Weather View 32 v70,2014-01-01 09:15:00,
2014-01-01 02:20:00,25.0,17.6,30.16,ENE,67,0.0,5.0,73,0.00,,,0.00,Weather View 32 v70,2014-01-01 09:20:00,
2014-01-01 02:24:00,25.0,17.9,30.16,ENE,67,4.0,5.0,74,0.00,,,0.00,Weather View 32 v70,2014-01-01 09:24:00,
2014-01-01 02:29:00,25.0,17.9,30.16,ENE,67,0.0,5.0,74,0.00,,,0.00,Weather View 32 v70,2014-01-01 09:29:00,
2014-01-01 02:34:00,25.0,17.9,30.16,ENE,67,3.0,5.0,74,0.00,,,0.00,Weather View 32 v70,2014-01-01 09:34:00,
2014-01-01 02:39:00,25.0,17.9,30.16,ENE,67,0.0,5.0,74,0.00,,,0.00,Weather View 32 v70,2014-01-01 09:39:00,
2014-01-01 02:44:00,25.0,18.2,30.16,ENE,67,0.0,5.0,75,0.00,,,0.00,Weather View 32 v70,2014-01-01 09:44:00,
2014-01-01 02:49:00,25.0,18.2,30.16,ENE,67,0.0,5.0,75,0.00,,,0.00,Weather View 32 v70,2014-01-01 09:49:00,
2014-01-01 02:54:00,24.0,17.5,30.16,ENE,67,0.0,5.0,76,0.00,,,0.00,Weather View 32 v70,2014-01-01 09:54:00,
2014-01-01 02:59:00,24.0,17.2,30.15,ENE,67,0.0,5.0,75,0.00,,,0.00,Weather View 32 v70,2014-01-01 09:59:00,
2014-01-01 03:04:00,24.0,16.9,30.15,ENE,67,0.0,5.0,74,0.00,,,0.00,Weather View 32 v70,2014-01-01 10:04:00,
2014-01-01 03:09:00,24.0,17.2,30.15,ENE,67,0.0,5.0,75,0.00,,,0.00,Weather View 32 v70,2014-01-01 10:09:00,
2014-01-01 03:14:00,24.0,16.9,30.15,ENE,67,2.0,5.0,74,0.00,,,0.00,Weather View 32 v70,2014-01-01 10:14:00,
2014-01-01 03:19:00,24.0,16.9,30.14,ENE,67,0.0,5.0,74,0.00,,,0.00,Weather View 32 v70,2014-01-01 10:19:00,
2014-01-01 03:24:00,24.0,16.9,30.14,ENE,67,0.0,5.0,74,0.00,,,0.00,Weather View 32 v70,2014-01-01 10:24:00,
2014-01-01 03:29:00,24.0,17.2,30.14,ENE,67,0.0,5.0,75,0.00,,,0.00,Weather View 32 v70,2014-01-01 10:29:00,
2014-01-01 03:34:00,24.0,17.5,30.14,ENE,67,0.0,4.0,76,0.00,,,0.00,Weather View 32 v70,2014-01-01 10:34:00,
2014-01-01 03:39:00,24.0,17.8,30.15,ENE,67,0.0,3.0,77,0.00,,,0.00,Weather View 32 v70,2014-01-01 10:39:00,
2014-01-01 03:44:00,23.0,17.2,30.15,ENE,67,0.0,3.0,78,0.00,,,0.00,Weather View 32 v70,2014-01-01 10:44:00,
2014-01-01 03:49:00,23.0,17.2,30.15,ENE,67,2.0,3.0,78,0.00,,,0.00,Weather View 32 v70,2014-01-01 10:49:00,
2014-01-01 03:54:00,23.0,16.9,30.15,ENE,67,2.0,3.0,77,0.00,,,0.00,Weather View 32 v70,2014-01-01 10:54:00,
2014-01-01 03:59:00,23.0,16.6,30.15,ENE,67,1.0,3.0,76,0.00,,,0.00,Weather View 32 v70,2014-01-01 10:59:00,
2014-01-01 04:04:00,23.0,16.9,30.15,ENE,67,2.0,3.0,77,0.00,,,0.00,Weather View 32 v70,2014-01-01 11:04:00,
2014-01-01 04:09:00,24.0,17.5,30.15,ENE,67,0.0,3.0,76,0.00,,,0.00,Weather View 32 v70,2014-01-01 11:09:00,
2014-01-01 04:14:00,24.0,17.5,30.15,ENE,67,0.0,3.0,76,0.00,,,0.00,Weather View 32 v70,2014-01-01 11:14:00,
2014-01-01 04:19:00,23.0,17.2,30.15,ENE,67,0.0,3.0,78,0.00,,,0.00,Weather View 32 v70,2014-01-01 11:19:00,
2014-01-01 04:24:00,23.0,17.2,30.15,ENE,67,0.0,3.0,78,0.00,,,0.00,Weather View 32 v70,2014-01-01 11:24:00,
2014-01-01 04:29:00,23.0,16.9,30.15,ENE,67,0.0,3.0,77,0.00,,,0.00,Weather View 32 v70,2014-01-01 11:29:00,
2014-01-01 04:34:00,23.0,16.9,30.15,ENE,67,0.0,3.0,77,0.00,,,0.00,Weather View 32 v70,2014-01-01 11:34:00,
2014-01-01 04:39:00,23.0,17.5,30.15,ENE,67,0.0,3.0,79,0.00,,,0.00,Weather View 32 v70,2014-01-01 11:39:00,
2014-01-01 04:44:00,23.0,17.5,30.15,ENE,67,0.0,3.0,79,0.00,,,0.00,Weather View 32 v70,2014-01-01 11:44:00,
2014-01-01 04:49:00,22.0,16.8,30.15,ENE,67,0.0,3.0,80,0.00,,,0.00,Weather View 32 v70,2014-01-01 11:49:00,
2014-01-01 04:54:00,22.0,16.8,30.15,ENE,67,0.0,3.0,80,0.00,,,0.00,Weather View 32 v70,2014-01-01 11:54:00,
2014-01-01 04:59:00,22.0,16.8,30.15,ENE,67,0.0,3.0,80,0.00,,,0.00,Weather View 32 v70,2014-01-01 11:59:00,
2014-01-01 05:04:00,22.0,17.1,30.15,ENE,67,0.0,3.0,81,0.00,,,0.00,Weather View 32 v70,2014-01-01 12:04:00,
2014-01-01 05:09:00,21.0,16.4,30.14,ENE,67,0.0,1.0,82,0.00,,,0.00,Weather View 32 v70,2014-01-01 12:09:00,
2014-01-01 05:14:00,21.0,16.7,30.14,ENE,67,0.0,1.0,83,0.00,,,0.00,Weather View 32 v70,2014-01-01 12:14:00,
2014-01-01 05:19:00,21.0,16.9,30.15,ENE,67,0.0,0.0,84,0.00,,,0.00,Weather View 32 v70,2014-01-01 12:19:00,
2014-01-01 05:24:00,21.0,17.2,30.15,ENE,67,0.0,0.0,85,0.00,,,0.00,Weather View 32 v70,2014-01-01 12:24:00,
2014-01-01 05:29:00,20.0,16.2,30.14,ENE,67,0.0,0.0,85,0.00,,,0.00,Weather View 32 v70,2014-01-01 12:29:00,
2014-01-01 05:34:00,20.0,16.2,30.14,ENE,67,0.0,0.0,85,0.00,,,0.00,Weather View 32 v70,2014-01-01 12:34:00,
2014-01-01 05:39:00,20.0,17.8,30.14,ENE,67,0.0,0.0,91,0.00,,,0.00,Weather View 32 v70,2014-01-01 12:39:00,
2014-01-01 05:44:00,20.0,17.8,30.14,ENE,67,0.0,0.0,91,0.00,,,0.00,Weather View 32 v70,2014-01-01 12:44:00,
2014-01-01 05:49:00,20.0,17.5,30.15,ENE,67,0.0,0.0,90,0.00,,,0.00,Weather View 32 v70,2014-01-01 12:49:00,
2014-01-01 05:54:00,19.0,17.6,30.15,ENE,67,0.0,0.0,94,0.00,,,0.00,Weather View 32 v70,2014-01-01 12:54:00,
2014-01-01 05:59:00,19.0,17.1,30.15,ENE,67,3.0,3.0,92,0.00,,,0.00,Weather View 32 v70,2014-01-01 12:59:00,
2014-01-01 06:04:00,19.0,17.3,30.15,ENE,67,4.0,4.0,93,0.00,,,0.00,Weather View 32 v70,2014-01-01 13:04:00,
2014-01-01 06:09:00,19.0,17.6,30.15,ENE,67,3.0,5.0,94,0.00,,,0.00,Weather View 32 v70,2014-01-01 13:09:00,
2014-01-01 06:14:00,19.0,17.6,30.15,ENE,67,0.0,5.0,94,0.00,,,0.00,Weather View 32 v70,2014-01-01 13:14:00,
2014-01-01 06:19:00,19.0,17.6,30.15,ENE,67,0.0,5.0,94,0.00,,,0.00,Weather View 32 v70,2014-01-01 13:19:00,
2014-01-01 06:24:00,19.0,17.6,30.15,ENE,67,0.0,5.0,94,0.00,,,0.00,Weather View 32 v70,2014-01-01 13:24:00,
2014-01-01 06:29:00,19.0,17.8,30.15,ENE,67,0.0,5.0,95,0.00,,,0.00,Weather View 32 v70,2014-01-01 13:29:00,
2014-01-01 06:34:00,19.0,18.0,30.15,ENE,67,0.0,5.0,96,0.00,,,0.00,Weather View 32 v70,2014-01-01 13:34:00,
2014-01-01 06:39:00,19.0,18.3,30.15,ENE,67,1.0,5.0,97,0.00,,,0.00,Weather View 32 v70,2014-01-01 13:39:00,
2014-01-01 06:44:00,19.0,18.3,30.15,ENE,67,2.0,5.0,97,0.00,,,0.00,Weather View 32 v70,2014-01-01 13:44:00,
2014-01-01 06:49:00,19.0,18.8,30.16,ENE,67,0.0,5.0,99,0.00,,,0.00,Weather View 32 v70,2014-01-01 13:49:00,
2014-01-01 06:54:00,19.0,18.8,30.16,ENE,67,0.0,5.0,99,0.00,,,0.00,Weather View 32 v70,2014-01-01 13:54:00,
2014-01-01 06:59:00,19.0,18.8,30.16,ENE,67,0.0,5.0,99,0.00,,,0.00,Weather View 32 v70,2014-01-01 13:59:00,
2014-01-01 07:04:00,18.0,18.0,30.16,ENE,67,0.0,5.0,100,0.00,,,0.00,Weather View 32 v70,2014-01-01 14:04:00,
2014-01-01 07:09:00,18.0,17.8,30.17,ENE,67,0.0,5.0,99,0.00,,,0.00,Weather View 32 v70,2014-01-01 14:09:00,
2014-01-01 07:14:00,18.0,17.8,30.17,ENE,67,0.0,5.0,99,0.00,,,0.00,Weather View 32 v70,2014-01-01 14:14:00,
2014-01-01 07:19:00,18.0,18.0,30.17,ENE,67,1.0,5.0,100,0.00,,,0.00,Weather View 32 v70,2014-01-01 14:19:00,
2014-01-01 07:24:00,18.0,18.0,30.17,ENE,67,0.0,5.0,100,0.00,,,0.00,Weather View 32 v70,2014-01-01 14:24:00,
2014-01-01 07:29:00,18.0,18.0,30.17,ENE,67,0.0,5.0,100,0.00,,,0.00,Weather View 32 v70,2014-01-01 14:29:00,
2014-01-01 07:34:00,18.0,18.0,30.17,ENE,67,0.0,5.0,100,0.00,,,0.00,Weather View 32 v70,2014-01-01 14:34:00,
2014-01-01 07:39:00,18.0,18.0,30.17,ENE,67,0.0,5.0,100,0.00,,,0.00,Weather View 32 v70,2014-01-01 14:39:00,
2014-01-01 07:44:00,18.0,18.0,30.17,ENE,67,1.0,5.0,100,0.00,,,0.00,Weather View 32 v70,2014-01-01 14:44:00,
2014-01-01 07:49:00,18.0,18.0,30.17,WNW,292,4.0,7.0,100,0.00,,,0.00,Weather View 32 v70,2014-01-01 14:49:00,
2014-01-01 07:54:00,19.0,19.0,30.17,WNW,292,4.0,7.0,100,0.00,,,0.00,Weather View 32 v70,2014-01-01 14:54:00,
2014-01-01 07:59:00,19.0,18.8,30.18,WNW,292,3.0,7.0,99,0.00,,,0.00,Weather View 32 v70,2014-01-01 14:59:00,
2014-01-01 08:04:00,20.0,19.5,30.18,WNW,292,0.0,7.0,98,0.00,,,0.00,Weather View 32 v70,2014-01-01 15:04:00,
2014-01-01 08:09:00,20.0,19.5,30.19,WNW,292,3.0,7.0,98,0.00,,,0.00,Weather View 32 v70,2014-01-01 15:09:00,
2014-01-01 08:14:00,20.0,19.8,30.19,WNW,292,0.0,7.0,99,0.00,,,0.00,Weather View 32 v70,2014-01-01 15:14:00,
2014-01-01 08:19:00,20.0,20.0,30.18,WNW,292,4.0,7.0,100,0.00,,,0.00,Weather View 32 v70,2014-01-01 15:19:00,
2014-01-01 08:24:00,21.0,20.0,30.18,West,270,4.0,7.0,96,0.00,,,0.00,Weather View 32 v70,2014-01-01 15:24:00,
2014-01-01 08:29:00,22.0,20.0,30.18,West,270,4.0,7.0,92,0.00,,,0.00,Weather View 32 v70,2014-01-01 15:29:00,
2014-01-01 08:34:00,23.0,19.7,30.18,West,270,6.0,10.0,87,0.00,,,0.00,Weather View 32 v70,2014-01-01 15:34:00,
2014-01-01 08:39:00,24.0,18.4,30.18,WNW,292,6.0,10.0,79,0.00,,,0.00,Weather View 32 v70,2014-01-01 15:39:00,
2014-01-01 08:44:00,25.0,18.5,30.18,WNW,292,9.0,11.0,76,0.00,,,0.00,Weather View 32 v70,2014-01-01 15:44:00,
2014-01-01 08:49:00,26.0,18.5,30.18,West,270,7.0,11.0,73,0.00,,,0.00,Weather View 32 v70,2014-01-01 15:49:00,
2014-01-01 08:54:00,27.0,18.5,30.18,WSW,247,5.0,14.0,70,0.00,,,0.00,Weather View 32 v70,2014-01-01 15:54:00,
2014-01-01 08:59:00,28.0,18.8,30.18,West,270,5.0,14.0,68,0.00,,,0.00,Weather View 32 v70,2014-01-01 15:59:00,
2014-01-01 09:04:00,29.0,18.7,30.18,NW,315,11.0,14.0,65,0.00,,,0.00,Weather View 32 v70,2014-01-01 16:04:00,
2014-01-01 09:09:00,29.0,18.0,30.18,West,270,8.0,14.0,63,0.00,,,0.00,Weather View 32 v70,2014-01-01 16:09:00,
2014-01-01 09:14:00,30.0,18.6,30.18,West,270,7.0,14.0,62,0.00,,,0.00,Weather View 32 v70,2014-01-01 16:14:00,
2014-01-01 09:19:00,31.0,18.7,30.18,West,270,8.0,14.0,60,0.00,,,0.00,Weather View 32 v70,2014-01-01 16:19:00,
2014-01-01 09:24:00,31.0,17.9,30.18,West,270,4.0,14.0,58,0.00,,,0.00,Weather View 32 v70,2014-01-01 16:24:00,
2014-01-01 09:29:00,32.0,18.9,30.18,West,270,7.0,14.0,58,0.00,,,0.00,Weather View 32 v70,2014-01-01 16:29:00,
2014-01-01 09:34:00,32.0,18.1,30.18,WNW,292,9.0,14.0,56,0.00,,,0.00,Weather View 32 v70,2014-01-01 16:34:00,
2014-01-01 09:39:00,33.0,18.6,30.18,West,270,6.0,16.0,55,0.00,,,0.00,Weather View 32 v70,2014-01-01 16:39:00,
2014-01-01 09:44:00,33.0,18.6,30.18,West,270,11.0,20.0,55,0.00,,,0.00,Weather View 32 v70,2014-01-01 16:44:00,
2014-01-01 09:49:00,33.0,18.6,30.17,West,270,7.0,20.0,55,0.00,,,0.00,Weather View 32 v70,2014-01-01 16:49:00,
2014-01-01 09:54:00,34.0,18.2,30.17,NW,315,14.0,20.0,52,0.00,,,0.00,Weather View 32 v70,2014-01-01 16:54:00,
2014-01-01 09:59:00,34.0,17.8,30.18,West,270,16.0,20.0,51,0.00,,,0.00,Weather View 32 v70,2014-01-01 16:59:00,
2014-01-01 10:04:00,34.0,17.8,30.18,West,270,9.0,20.0,51,0.00,,,0.00,Weather View 32 v70,2014-01-01 17:04:00,
2014-01-01 10:09:00,35.0,18.7,30.18,WSW,247,8.0,20.0,51,0.00,,,0.00,Weather View 32 v70,2014-01-01 17:09:00,
2014-01-01 10:14:00,35.0,18.2,30.18,West,270,8.0,23.0,50,0.00,,,0.00,Weather View 32 v70,2014-01-01 17:14:00,
2014-01-01 10:19:00,36.0,18.7,30.18,NW,315,6.0,23.0,49,0.00,,,0.00,Weather View 32 v70,2014-01-01 17:19:00,
2014-01-01 10:24:00,36.0,18.7,30.18,West,270,12.0,23.0,49,0.00,,,0.00,Weather View 32 v70,2014-01-01 17:24:00,
2014-01-01 10:29:00,36.0,18.2,30.18,SW,225,10.0,23.0,48,0.00,,,0.00,Weather View 32 v70,2014-01-01 17:29:00,
2014-01-01 10:34:00,37.0,18.6,30.18,WNW,292,7.0,23.0,47,0.00,,,0.00,Weather View 32 v70,2014-01-01 17:34:00,
2014-01-01 10:39:00,38.0,19.0,30.17,West,270,10.0,23.0,46,0.00,,,0.00,Weather View 32 v70,2014-01-01 17:39:00,
2014-01-01 10:44:00,38.0,18.5,30.17,West,270,7.0,23.0,45,0.00,,,0.00,Weather View 32 v70,2014-01-01 17:44:00,
2014-01-01 10:49:00,39.0,18.9,30.17,West,270,13.0,23.0,44,0.00,,,0.00,Weather View 32 v70,2014-01-01 17:49:00,
2014-01-01 10:54:00,39.0,18.9,30.17,WSW,247,4.0,23.0,44,0.00,,,0.00,Weather View 32 v70,2014-01-01 17:54:00,
2014-01-01 10:59:00,40.0,19.3,30.17,West,270,14.0,23.0,43,0.00,,,0.00,Weather View 32 v70,2014-01-01 17:59:00,
2014-01-01 11:04:00,40.0,18.7,30.17,NW,315,12.0,23.0,42,0.00,,,0.00,Weather View 32 v70,2014-01-01 18:04:00,
2014-01-01 11:09:00,40.0,18.2,30.17,West,270,14.0,23.0,41,0.00,,,0.00,Weather View 32 v70,2014-01-01 18:09:00,
2014-01-01 11:14:00,41.0,19.1,30.17,WNW,292,14.0,24.0,41,0.00,,,0.00,Weather View 32 v70,2014-01-01 18:14:00,
2014-01-01 11:19:00,41.0,19.6,30.17,West,270,10.0,24.0,42,0.00,,,0.00,Weather View 32 v70,2014-01-01 18:19:00,
2014-01-01 11:24:00,41.0,19.1,30.17,West,270,17.0,24.0,41,0.00,,,0.00,Weather View 32 v70,2014-01-01 18:24:00,
2014-01-01 11:29:00,42.0,19.4,30.16,SW,225,13.0,24.0,40,0.00,,,0.00,Weather View 32 v70,2014-01-01 18:29:00,
2014-01-01 11:34:00,42.0,19.4,30.16,WSW,247,12.0,24.0,40,0.00,,,0.00,Weather View 32 v70,2014-01-01 18:34:00,
2014-01-01 11:39:00,42.0,19.4,30.15,WSW,247,10.0,24.0,40,0.00,,,0.00,Weather View 32 v70,2014-01-01 18:39:00,
2014-01-01 11:44:00,42.0,18.8,30.15,West,270,14.0,24.0,39,0.00,,,0.00,Weather View 32 v70,2014-01-01 18:44:00,
2014-01-01 11:49:00,43.0,19.7,30.16,West,270,13.0,24.0,39,0.00,,,0.00,Weather View 32 v70,2014-01-01 18:49:00,
2014-01-01 11:54:00,43.0,19.1,30.16,WNW,292,7.0,24.0,38,0.00,,,0.00,Weather View 32 v70,2014-01-01 18:54:00,
2014-01-01 11:59:00,44.0,19.4,30.14,West,270,18.0,24.0,37,0.00,,,0.00,Weather View 32 v70,2014-01-01 18:59:00,
2014-01-01 12:04:00,45.0,20.9,30.14,WNW,292,10.0,24.0,38,0.00,,,0.00,Weather View 32 v70,2014-01-01 19:04:00,
2014-01-01 12:09:00,45.0,20.3,30.14,West,270,20.0,24.0,37,0.00,,,0.00,Weather View 32 v70,2014-01-01 19:09:00,
2014-01-01 12:14:00,45.0,20.3,30.14,WNW,292,10.0,22.0,37,0.00,,,0.00,Weather View 32 v70,2014-01-01 19:14:00,
2014-01-01 12:19:00,45.0,20.3,30.14,West,270,12.0,24.0,37,0.00,,,0.00,Weather View 32 v70,2014-01-01 19:19:00,
2014-01-01 12:24:00,45.0,19.6,30.14,NW,315,7.0,25.0,36,0.00,,,0.00,Weather View 32 v70,2014-01-01 19:24:00,
2014-01-01 12:29:00,46.0,19.8,30.14,WNW,292,10.0,25.0,35,0.00,,,0.00,Weather View 32 v70,2014-01-01 19:29:00,
2014-01-01 12:34:00,46.0,19.8,30.14,NW,315,5.0,25.0,35,0.00,,,0.00,Weather View 32 v70,2014-01-01 19:34:00,
2014-01-01 12:39:00,46.0,19.8,30.13,West,270,9.0,25.0,35,0.00,,,0.00,Weather View 32 v70,2014-01-01 19:39:00,
2014-01-01 12:44:00,46.0,19.2,30.13,West,270,7.0,25.0,34,0.00,,,0.00,Weather View 32 v70,2014-01-01 19:44:00,
2014-01-01 12:49:00,47.0,20.0,30.12,WNW,292,11.0,25.0,34,0.00,,,0.00,Weather View 32 v70,2014-01-01 19:49:00,
2014-01-01 12:54:00,47.0,20.0,30.12,West,270,13.0,25.0,34,0.00,,,0.00,Weather View 32 v70,2014-01-01 19:54:00,
2014-01-01 12:59:00,48.0,19.5,30.12,WNW,292,7.0,25.0,32,0.00,,,0.00,Weather View 32 v70,2014-01-01 19:59:00,
2014-01-01 13:04:00,48.0,18.8,30.12,WSW,247,10.0,25.0,31,0.00,,,0.00,Weather View 32 v70,2014-01-01 20:04:00,
2014-01-01 13:09:00,48.0,19.5,30.11,WNW,292,8.0,25.0,32,0.00,,,0.00,Weather View 32 v70,2014-01-01 20:09:00,
2014-01-01 13:14:00,48.0,19.5,30.11,West,270,13.0,25.0,32,0.00,,,0.00,Weather View 32 v70,2014-01-01 20:14:00,
2014-01-01 13:19:00,49.0,20.4,30.11,West,270,10.0,25.0,32,0.00,,,0.00,Weather View 32 v70,2014-01-01 20:19:00,
2014-01-01 13:24:00,49.0,20.4,30.11,West,270,16.0,25.0,32,0.00,,,0.00,Weather View 32 v70,2014-01-01 20:24:00,
2014-01-01 13:29:00,49.0,20.4,30.11,West,270,20.0,25.0,32,0.00,,,0.00,Weather View 32 v70,2014-01-01 20:29:00,
2014-01-01 13:34:00,49.0,20.4,30.11,NW,315,17.0,28.0,32,0.00,,,0.00,Weather View 32 v70,2014-01-01 20:34:00,
2014-01-01 13:39:00,49.0,20.4,30.10,West,270,13.0,28.0,32,0.00,,,0.00,Weather View 32 v70,2014-01-01 20:39:00,
2014-01-01 13:44:00,49.0,20.4,30.10,West,270,12.0,28.0,32,0.00,,,0.00,Weather View 32 v70,2014-01-01 20:44:00,
2014-01-01 13:49:00,49.0,20.4,30.10,West,270,8.0,28.0,32,0.00,,,0.00,Weather View 32 v70,2014-01-01 20:49:00,
2014-01-01 13:54:00,50.0,18.9,30.10,WSW,247,21.0,28.0,29,0.00,,,0.00,Weather View 32 v70,2014-01-01 20:54:00,
2014-01-01 13:59:00,50.0,19.7,30.09,NW,315,11.0,29.0,30,0.00,,,0.00,Weather View 32 v70,2014-01-01 20:59:00,
2014-01-01 14:04:00,50.0,19.7,30.09,West,270,11.0,29.0,30,0.00,,,0.00,Weather View 32 v70,2014-01-01 21:04:00,
2014-01-01 14:09:00,50.0,19.7,30.10,WNW,292,12.0,29.0,30,0.00,,,0.00,Weather View 32 v70,2014-01-01 21:09:00,
2014-01-01 14:14:00,50.0,18.9,30.10,NW,315,8.0,29.0,29,0.00,,,0.00,Weather View 32 v70,2014-01-01 21:14:00,
2014-01-01 14:19:00,50.0,18.9,30.10,West,270,9.0,29.0,29,0.00,,,0.00,Weather View 32 v70,2014-01-01 21:19:00,
2014-01-01 14:24:00,50.0,18.9,30.10,NW,315,9.0,29.0,29,0.00,,,0.00,Weather View 32 v70,2014-01-01 21:24:00,
2014-01-01 14:29:00,50.0,18.1,30.10,NW,315,6.0,29.0,28,0.00,,,0.00,Weather View 32 v70,2014-01-01 21:29:00,
2014-01-01 14:34:00,50.0,18.1,30.10,West,270,23.0,29.0,28,0.00,,,0.00,Weather View 32 v70,2014-01-01 21:34:00,
2014-01-01 14:39:00,50.0,18.1,30.10,West,270,12.0,29.0,28,0.00,,,0.00,Weather View 32 v70,2014-01-01 21:39:00,
2014-01-01 14:44:00,51.0,17.3,30.10,West,270,10.0,29.0,26,0.00,,,0.00,Weather View 32 v70,2014-01-01 21:44:00,
2014-01-01 14:49:00,51.0,18.1,30.10,WNW,292,19.0,29.0,27,0.00,,,0.00,Weather View 32 v70,2014-01-01 21:49:00,
2014-01-01 14:54:00,51.0,18.1,30.10,West,270,8.0,29.0,27,0.00,,,0.00,Weather View 32 v70,2014-01-01 21:54:00,
2014-01-01 14:59:00,51.0,18.1,30.10,West,270,8.0,27.0,27,0.00,,,0.00,Weather View 32 v70,2014-01-01 21:59:00,
2014-01-01 15:04:00,51.0,17.3,30.10,WNW,292,8.0,26.0,26,0.00,,,0.00,Weather View 32 v70,2014-01-01 22:04:00,
2014-01-01 15:09:00,51.0,16.4,30.10,WNW,292,11.0,26.0,25,0.00,,,0.00,Weather View 32 v70,2014-01-01 22:09:00,
2014-01-01 15:14:00,51.0,16.4,30.10,WNW,292,12.0,25.0,25,0.00,,,0.00,Weather View 32 v70,2014-01-01 22:14:00,
2014-01-01 15:19:00,51.0,16.4,30.10,WNW,292,12.0,25.0,25,0.00,,,0.00,Weather View 32 v70,2014-01-01 22:19:00,
2014-01-01 15:24:00,51.0,16.4,30.10,NW,315,13.0,25.0,25,0.00,,,0.00,Weather View 32 v70,2014-01-01 22:24:00,
2014-01-01 15:29:00,51.0,16.4,30.11,West,270,10.0,25.0,25,0.00,,,0.00,Weather View 32 v70,2014-01-01 22:29:00,
2014-01-01 15:34:00,51.0,16.4,30.11,West,270,8.0,25.0,25,0.00,,,0.00,Weather View 32 v70,2014-01-01 22:34:00,
2014-01-01 15:39:00,51.0,16.4,30.11,WSW,247,10.0,25.0,25,0.00,,,0.00,Weather View 32 v70,2014-01-01 22:39:00,
2014-01-01 15:44:00,51.0,17.3,30.11,WNW,292,11.0,26.0,26,0.00,,,0.00,Weather View 32 v70,2014-01-01 22:44:00,
2014-01-01 15:49:00,50.0,15.5,30.11,NW,315,13.0,26.0,25,0.00,,,0.00,Weather View 32 v70,2014-01-01 22:49:00,
2014-01-01 15:54:00,50.0,15.5,30.11,West,270,18.0,26.0,25,0.00,,,0.00,Weather View 32 v70,2014-01-01 22:54:00,
2014-01-01 15:59:00,50.0,15.5,30.11,West,270,12.0,26.0,25,0.00,,,0.00,Weather View 32 v70,2014-01-01 22:59:00,
2014-01-01 16:04:00,50.0,15.5,30.11,West,270,10.0,26.0,25,0.00,,,0.00,Weather View 32 v70,2014-01-01 23:04:00,
2014-01-01 16:09:00,50.0,17.3,30.12,West,270,6.0,26.0,27,0.00,,,0.00,Weather View 32 v70,2014-01-01 23:09:00,
2014-01-01 16:14:00,49.0,16.4,30.12,West,270,7.0,26.0,27,0.00,,,0.00,Weather View 32 v70,2014-01-01 23:14:00,
2014-01-01 16:19:00,49.0,17.3,30.12,West,270,10.0,26.0,28,0.00,,,0.00,Weather View 32 v70,2014-01-01 23:19:00,
2014-01-01 16:24:00,49.0,17.3,30.12,WNW,292,7.0,26.0,28,0.00,,,0.00,Weather View 32 v70,2014-01-01 23:24:00,
2014-01-01 16:29:00,48.0,17.2,30.13,NW,315,15.0,26.0,29,0.00,,,0.00,Weather View 32 v70,2014-01-01 23:29:00,
2014-01-01 16:34:00,48.0,18.0,30.13,West,270,8.0,26.0,30,0.00,,,0.00,Weather View 32 v70,2014-01-01 23:34:00,
2014-01-01 16:39:00,47.0,17.1,30.14,SW,225,6.0,26.0,30,0.00,,,0.00,Weather View 32 v70,2014-01-01 23:39:00,
2014-01-01 16:44:00,47.0,17.9,30.14,WNW,292,10.0,26.0,31,0.00,,,0.00,Weather View 32 v70,2014-01-01 23:44:00,
2014-01-01 16:49:00,47.0,18.6,30.14,West,270,3.0,26.0,32,0.00,,,0.00,Weather View 32 v70,2014-01-01 23:49:00,
2014-01-01 16:54:00,46.0,17.7,30.14,SW,225,6.0,26.0,32,0.00,,,0.00,Weather View 32 v70,2014-01-01 23:54:00,
2014-01-01 16:59:00,46.0,18.5,30.15,SW,225,7.0,21.0,33,0.00,,,0.00,Weather View 32 v70,2014-01-01 23:59:00,
2014-01-01 17:04:00,45.0,17.6,30.15,SW,225,10.0,21.0,33,0.00,,,0.00,Weather View 32 v70,2014-01-02 00:04:00,
2014-01-01 17:09:00,45.0,18.3,30.16,SW,225,10.0,21.0,34,0.00,,,0.00,Weather View 32 v70,2014-01-02 00:09:00,
2014-01-01 17:14:00,44.0,17.4,30.16,SSW,202,5.0,21.0,34,0.00,,,0.00,Weather View 32 v70,2014-01-02 00:14:00,
2014-01-01 17:19:00,44.0,18.1,30.16,South,180,8.0,21.0,35,0.00,,,0.00,Weather View 32 v70,2014-01-02 00:19:00,
2014-01-01 17:24:00,44.0,18.7,30.16,SSW,202,9.0,21.0,36,0.00,,,0.00,Weather View 32 v70,2014-01-02 00:24:00,
2014-01-01 17:29:00,43.0,17.2,30.17,South,180,9.0,21.0,35,0.00,,,0.00,Weather View 32 v70,2014-01-02 00:29:00,
2014-01-01 17:34:00,43.0,17.8,30.17,SW,225,6.0,19.0,36,0.00,,,0.00,Weather View 32 v70,2014-01-02 00:34:00,
2014-01-01 17:39:00,43.0,17.8,30.17,WSW,247,6.0,17.0,36,0.00,,,0.00,Weather View 32 v70,2014-01-02 00:39:00,
2014-01-01 17:44:00,43.0,17.8,30.17,West,270,5.0,16.0,36,0.00,,,0.00,Weather View 32 v70,2014-01-02 00:44:00,
2014-01-01 17:49:00,42.0,17.6,30.17,West,270,10.0,13.0,37,0.00,,,0.00,Weather View 32 v70,2014-01-02 00:49:00,
2014-01-01 17:54:00,42.0,17.6,30.17,NW,315,10.0,14.0,37,0.00,,,0.00,Weather View 32 v70,2014-01-02 00:54:00,
2014-01-01 17:59:00,41.0,16.7,30.17,West,270,10.0,14.0,37,0.00,,,0.00,Weather View 32 v70,2014-01-02 00:59:00,
2014-01-01 18:04:00,41.0,16.1,30.17,West,270,7.0,16.0,36,0.00,,,0.00,Weather View 32 v70,2014-01-02 01:04:00,
2014-01-01 18:09:00,41.0,16.7,30.18,WNW,292,10.0,16.0,37,0.00,,,0.00,Weather View 32 v70,2014-01-02 01:09:00,
2014-01-01 18:14:00,41.0,16.7,30.18,NW,315,8.0,16.0,37,0.00,,,0.00,Weather View 32 v70,2014-01-02 01:14:00,
2014-01-01 18:19:00,41.0,16.7,30.18,WNW,292,11.0,16.0,37,0.00,,,0.00,Weather View 32 v70,2014-01-02 01:19:00,
2014-01-01 18:24:00,41.0,16.1,30.18,WNW,292,8.0,16.0,36,0.00,,,0.00,Weather View 32 v70,2014-01-02 01:24:00,
2014-01-01 18:29:00,40.0,15.8,30.18,WNW,292,7.0,16.0,37,0.00,,,0.00,Weather View 32 v70,2014-01-02 01:29:00,
2014-01-01 18:34:00,40.0,16.4,30.18,West,270,6.0,16.0,38,0.00,,,0.00,Weather View 32 v70,2014-01-02 01:34:00,
2014-01-01 18:39:00,40.0,17.0,30.19,WNW,292,7.0,16.0,39,0.00,,,0.00,Weather View 32 v70,2014-01-02 01:39:00,
2014-01-01 18:44:00,40.0,17.0,30.19,West,270,10.0,16.0,39,0.00,,,0.00,Weather View 32 v70,2014-01-02 01:44:00,
2014-01-01 18:49:00,39.0,16.1,30.19,WNW,292,4.0,16.0,39,0.00,,,0.00,Weather View 32 v70,2014-01-02 01:49:00,
2014-01-01 18:54:00,39.0,16.7,30.19,WNW,292,4.0,16.0,40,0.00,,,0.00,Weather View 32 v70,2014-01-02 01:54:00,
2014-01-01 18:59:00,38.0,15.8,30.19,NW,315,7.0,16.0,40,0.00,,,0.00,Weather View 32 v70,2014-01-02 01:59:00,
2014-01-01 19:04:00,38.0,16.4,30.19,NW,315,4.0,16.0,41,0.00,,,0.00,Weather View 32 v70,2014-01-02 02:04:00,
2014-01-01 19:09:00,38.0,16.4,30.20,NW,315,7.0,16.0,41,0.00,,,0.00,Weather View 32 v70,2014-01-02 02:09:00,
2014-01-01 19:14:00,38.0,16.4,30.20,NW,315,7.0,16.0,41,0.00,,,0.00,Weather View 32 v70,2014-01-02 02:14:00,
2014-01-01 19:19:00,37.0,14.9,30.20,NW,315,6.0,16.0,40,0.00,,,0.00,Weather View 32 v70,2014-01-02 02:19:00,
2014-01-01 19:24:00,37.0,14.9,30.20,NW,315,3.0,16.0,40,0.00,,,0.00,Weather View 32 v70,2014-01-02 02:24:00,
2014-01-01 19:29:00,37.0,14.9,30.20,WNW,292,2.0,16.0,40,0.00,,,0.00,Weather View 32 v70,2014-01-02 02:29:00,
2014-01-01 19:34:00,37.0,14.9,30.20,NW,315,3.0,13.0,40,0.00,,,0.00,Weather View 32 v70,2014-01-02 02:34:00,
2014-01-01 19:39:00,36.0,13.4,30.20,SW,225,6.0,13.0,39,0.00,,,0.00,Weather View 32 v70,2014-01-02 02:39:00,
2014-01-01 19:44:00,36.0,13.4,30.20,SSW,202,3.0,12.0,39,0.00,,,0.00,Weather View 32 v70,2014-01-02 02:44:00,
2014-01-01 19:49:00,36.0,14.6,30.21,South,180,5.0,12.0,41,0.00,,,0.00,Weather View 32 v70,2014-01-02 02:49:00,
2014-01-01 19:54:00,36.0,15.1,30.21,South,180,2.0,12.0,42,0.00,,,0.00,Weather View 32 v70,2014-01-02 02:54:00,
2014-01-01 19:59:00,36.0,15.6,30.21,South,180,0.0,12.0,43,0.00,,,0.00,Weather View 32 v70,2014-01-02 02:59:00,
2014-01-01 20:04:00,36.0,16.2,30.21,South,180,3.0,12.0,44,0.00,,,0.00,Weather View 32 v70,2014-01-02 03:04:00,
2014-01-01 20:09:00,35.0,15.3,30.22,South,180,0.0,12.0,44,0.00,,,0.00,Weather View 32 v70,2014-01-02 03:09:00,
2014-01-01 20:14:00,35.0,16.3,30.22,South,180,0.0,12.0,46,0.00,,,0.00,Weather View 32 v70,2014-01-02 03:14:00,
2014-01-01 20:19:00,34.0,15.4,30.22,South,180,0.0,9.0,46,0.00,,,0.00,Weather View 32 v70,2014-01-02 03:19:00,
2014-01-01 20:24:00,34.0,15.4,30.22,South,180,0.0,9.0,46,0.00,,,0.00,Weather View 32 v70,2014-01-02 03:24:00,
2014-01-01 20:29:00,34.0,15.4,30.22,SSW,202,0.0,9.0,46,0.00,,,0.00,Weather View 32 v70,2014-01-02 03:29:00,
2014-01-01 20:34:00,33.0,14.9,30.22,SW,225,5.0,9.0,47,0.00,,,0.00,Weather View 32 v70,2014-01-02 03:34:00,
2014-01-01 20:39:00,33.0,15.4,30.22,SW,225,3.0,8.0,48,0.00,,,0.00,Weather View 32 v70,2014-01-02 03:39:00,
2014-01-01 20:44:00,33.0,15.4,30.22,SW,225,3.0,7.0,48,0.00,,,0.00,Weather View 32 v70,2014-01-02 03:44:00,
2014-01-01 20:49:00,33.0,15.9,30.22,SW,225,0.0,7.0,49,0.00,,,0.00,Weather View 32 v70,2014-01-02 03:49:00,
2014-01-01 20:54:00,32.0,15.4,30.22,SW,225,0.0,7.0,50,0.00,,,0.00,Weather View 32 v70,2014-01-02 03:54:00,
2014-01-01 20:59:00,32.0,15.0,30.22,West,270,1.0,7.0,49,0.00,,,0.00,Weather View 32 v70,2014-01-02 03:59:00,
2014-01-01 21:04:00,32.0,14.5,30.22,West,270,4.0,7.0,48,0.00,,,0.00,Weather View 32 v70,2014-01-02 04:04:00,
2014-01-01 21:09:00,32.0,14.5,30.22,West,270,2.0,7.0,48,0.00,,,0.00,Weather View 32 v70,2014-01-02 04:09:00,
2014-01-01 21:14:00,32.0,14.5,30.22,WNW,292,1.0,7.0,48,0.00,,,0.00,Weather View 32 v70,2014-01-02 04:14:00,
2014-01-01 21:19:00,31.0,13.6,30.23,WNW,292,3.0,7.0,48,0.00,,,0.00,Weather View 32 v70,2014-01-02 04:19:00,
2014-01-01 21:24:00,31.0,13.6,30.23,WNW,292,1.0,7.0,48,0.00,,,0.00,Weather View 32 v70,2014-01-02 04:24:00,
2014-01-01 21:29:00,31.0,14.5,30.23,SW,225,4.0,7.0,50,0.00,,,0.00,Weather View 32 v70,2014-01-02 04:29:00,
2014-01-01 21:34:00,31.0,15.0,30.23,SW,225,2.0,6.0,51,0.00,,,0.00,Weather View 32 v70,2014-01-02 04:34:00,
2014-01-01 21:39:00,31.0,15.4,30.23,SW,225,4.0,6.0,52,0.00,,,0.00,Weather View 32 v70,2014-01-02 04:39:00,
2014-01-01 21:44:00,30.0,15.4,30.23,SW,225,4.0,6.0,54,0.00,,,0.00,Weather View 32 v70,2014-01-02 04:44:00,
2014-01-01 21:49:00,30.0,15.8,30.24,SW,225,4.0,7.0,55,0.00,,,0.00,Weather View 32 v70,2014-01-02 04:49:00,
2014-01-01 21:54:00,30.0,16.6,30.24,SW,225,5.0,7.0,57,0.00,,,0.00,Weather View 32 v70,2014-01-02 04:54:00,
2014-01-01 21:59:00,30.0,16.6,30.23,SW,225,4.0,7.0,57,0.00,,,0.00,Weather View 32 v70,2014-01-02 04:59:00,
2014-01-01 22:01:00,30.0,16.6,30.23,SW,225,5.0,7.0,57,0.00,,,0.00,Weather View 32 v70,2014-01-02 05:01:00,
2014-01-01 22:06:00,30.0,16.6,30.24,SW,225,0.0,7.0,57,0.00,,,0.00,Weather View 32 v70,2014-01-02 05:06:00,
2014-01-01 22:11:00,29.0,16.1,30.24,SW,225,1.0,7.0,58,0.00,,,0.00,Weather View 32 v70,2014-01-02 05:11:00,
2014-01-01 22:16:00,29.0,16.1,30.24,West,270,1.0,7.0,58,0.00,,,0.00,Weather View 32 v70,2014-01-02 05:16:00,
2014-01-01 22:21:00,29.0,16.1,30.24,West,270,3.0,7.0,58,0.00,,,0.00,Weather View 32 v70,2014-01-02 05:21:00,
2014-01-01 22:26:00,29.0,16.5,30.24,West,270,0.0,7.0,59,0.00,,,0.00,Weather View 32 v70,2014-01-02 05:26:00,
2014-01-01 22:31:00,28.0,16.3,30.24,West,270,0.0,7.0,61,0.00,,,0.00,Weather View 32 v70,2014-01-02 05:31:00,
2014-01-01 22:36:00,28.0,16.3,30.25,West,270,0.0,7.0,61,0.00,,,0.00,Weather View 32 v70,2014-01-02 05:36:00,
2014-01-01 22:41:00,28.0,17.0,30.25,West,270,0.0,7.0,63,0.00,,,0.00,Weather View 32 v70,2014-01-02 05:41:00,
2014-01-01 22:46:00,28.0,17.0,30.25,West,270,0.0,7.0,63,0.00,,,0.00,Weather View 32 v70,2014-01-02 05:46:00,
2014-01-01 22:51:00,27.0,16.8,30.25,West,270,1.0,7.0,65,0.00,,,0.00,Weather View 32 v70,2014-01-02 05:51:00,
2014-01-01 22:55:00,27.0,16.1,30.25,West,270,1.0,5.0,63,0.00,,,0.00,Weather View 32 v70,2014-01-02 05:55:00,
2014-01-01 23:00:00,27.0,16.8,30.25,West,270,0.0,5.0,65,0.00,,,0.00,Weather View 32 v70,2014-01-02 06:00:00,
2014-01-01 23:05:00,27.0,16.4,30.26,West,270,0.0,4.0,64,0.00,,,0.00,Weather View 32 v70,2014-01-02 06:05:00,
2014-01-01 23:10:00,26.0,15.8,30.26,West,270,1.0,4.0,65,0.00,,,0.00,Weather View 32 v70,2014-01-02 06:10:00,
2014-01-01 23:15:00,27.0,16.8,30.25,West,270,4.0,4.0,65,0.00,,,0.00,Weather View 32 v70,2014-01-02 06:15:00,
2014-01-01 23:20:00,26.0,16.2,30.25,NW,315,3.0,4.0,66,0.00,,,0.00,Weather View 32 v70,2014-01-02 06:20:00,
2014-01-01 23:25:00,26.0,16.2,30.26,WNW,292,3.0,7.0,66,0.00,,,0.00,Weather View 32 v70,2014-01-02 06:25:00,
2014-01-01 23:30:00,26.0,16.2,30.26,NW,315,5.0,7.0,66,0.00,,,0.00,Weather View 32 v70,2014-01-02 06:30:00,
2014-01-01 23:35:00,27.0,17.2,30.26,West,270,3.0,7.0,66,0.00,,,0.00,Weather View 32 v70,2014-01-02 06:35:00,
2014-01-01 23:40:00,26.0,16.2,30.26,West,270,2.0,10.0,66,0.00,,,0.00,Weather View 32 v70,2014-01-02 06:40:00,
2014-01-01 23:45:00,27.0,17.2,30.26,West,270,3.0,10.0,66,0.00,,,0.00,Weather View 32 v70,2014-01-02 06:45:00,
2014-01-01 23:50:00,26.0,16.2,30.26,WNW,292,0.0,10.0,66,0.00,,,0.00,Weather View 32 v70,2014-01-02 06:50:00,
2014-01-01 23:55:00,27.0,17.2,30.26,WNW,292,0.0,10.0,66,0.00,,,0.00,Weather View 32 v70,2014-01-02 06:55:00,